ESSA/ARN METAR and TAF weather

Enter ICAO airport designator
Station Type Date Time Source
ESSA METAR 2019/12/13 13:50 UTC NOAA

ESSA 131350Z 12007KT 9999 -RA FEW018 OVC027 03/02 Q0995 R01L/29//95 R08/29//95 R01R/29//95 TEMPO BKN010


Station Type Date Time Source
ESSA Decoded METAR 2019/12/13 13:50 UTC NOAA

Stockholm / Arlanda, Sweden (ESSA) 59-39N 017-57E 61M
Dec 13, 2019 - 08:50 AM EST / 2019.12.13 1350 UTC
Wind: from the ESE (120 degrees) at 8 MPH (7 KT):0
Visibility: greater than 7 mile(s):0
Sky conditions: overcast
Weather: light rain
Temperature: 37 F (3 C)
Dew Point: 35 F (2 C)
Relative Humidity: 93%
Pressure (altimeter): 29.38 in. Hg (0995 hPa)
ob: ESSA 131350Z 12007KT 9999 -RA FEW018 OVC027 03/02 Q0995 R01L/29//95 R08/29//95 R01R/29//95 TEMPO BKN010
cycle: 14

Station Type Date Time Source
ESSA TAF 2019/12/13 12:21 UTC NOAA

TAF TAF ESSA 131130Z 1312/1412 13009KT 9999 SCT015 BKN040 PROB40 1312/1316 SHRA BKN009 BKN015TCU
BECMG 1316/1319 4000 RA BKN007
TEMPO 1319/1401 6000 -RA BKN015 PROB40 1401/1406 2000 RASN BKN004
TEMPO 1406/1412 6000 -RA BKN015

Example: see airport list